Historique des mesures à Cassis (13260), France
Quotidien Résumé Fevrier 13, 2018 Unités:  Métrique    US   Métrique/US
« Précédent (Jour)
Suivant (Jour) »
Quotidien Hebdomadaire Mensuel Annuel Période au choix
  Maximum: Minimum: Moyenne:
Température: TemperatureC °C 3.1 °C 5.7 °C
Point de rosée: DewpointC °C -7.8 °C -5.2 °C
Humidité: Humidity % 35 % 42 %
Vitesse du vent: 0 km/h 0 km/h 8.5 km/h
Rafales: 0 km/h - -
Vent:- - WSW
Pression: PressurehPa hPa 1007.7 hPa -
Précipitations: 0.0 mm    
Historical Graphs
 
 
Mesures pour : Fevrier 13, 2018
Heure Temperature Point de rosée Pression Vent Vitesse du vent Rafales Humidité Pluie (par heure) Conditions
TemperatureC °C DewpointC °C PressurehPa hPa Calm     Humidity % HourlyPrecipMM mm SoftwareType W/m2
00:12 4.4 °C -4.9 °C 1009.7 hPa NW 25.4 km/h 25.4 km/h 51 % 0.0 mm open2300-1.11 W/m2
01:12 4.1 °C -4.9 °C 1009.7 hPa WNW 25.4 km/h 29.5 km/h 52 % 0.0 mm open2300-1.11 W/m2
02:12 3.3 °C -5.2 °C 1010.0 hPa Calm   7.6 km/h 54 % 0.0 mm open2300-1.11 W/m2
03:12 3.1 °C -5.8 °C 1009.7 hPa WNW 19.6 km/h 25.4 km/h 52 % 0.0 mm open2300-1.11 W/m2
04:12 4.1 °C -6.9 °C 1009.7 hPa NNW 6.4 km/h 11.6 km/h 45 % 0.0 mm open2300-1.11 W/m2
05:12 4.3 °C -7.3 °C 1009.7 hPa WNW 9.8 km/h 29 km/h 43 % 0.0 mm open2300-1.11 W/m2
06:12 4.1 °C -7.4 °C 1010.0 hPa NNW 2.3 km/h 5.1 km/h 43 % 0.0 mm open2300-1.11 W/m2
07:12 3.8 °C -7.7 °C 1010.0 hPa NW 6.9 km/h 6.9 km/h 43 % 0.0 mm open2300-1.11 W/m2
08:12 3.1 °C -7.8 °C 1010.7 hPa North 2.3 km/h 6.4 km/h 45 % 0.0 mm open2300-1.11 W/m2
09:12 5.3 °C -6.7 °C 1011.1 hPa Calm   5.6 km/h 42 % 0.0 mm open2300-1.11 W/m2
10:12 5.6 °C -6.9 °C 1010.7 hPa North 6.9 km/h 26.2 km/h 40 % 0.0 mm open2300-1.11 W/m2
11:12 8.1 °C -4.4 °C 1011.1 hPa ESE 5.1 km/h 10.3 km/h 41 % 0.0 mm open2300-1.11 W/m2
12:12 9.5 °C -3.8 °C 1010.7 hPa Calm   10.9 km/h 39 % 0.0 mm open2300-1.11 W/m2
13:12 9.6 °C -3.7 °C 1009.7 hPa South 9.8 km/h 11.6 km/h 39 % 0.0 mm open2300-1.11 W/m2
14:12 8.2 °C -4.3 °C 1009.7 hPa NW 40.7 km/h 40.7 km/h 41 % 0.0 mm open2300-1.11 W/m2
15:12 8.5 °C -4.3 °C 1009.0 hPa North 2.9 km/h 14 km/h 40 % 0.0 mm open2300-1.11 W/m2
16:12 8.3 °C -6.4 °C 1009.0 hPa West 14.5 km/h 15 km/h 35 % 0.0 mm open2300-1.11 W/m2
17:12 7.8 °C -3.8 °C 1009.4 hPa Calm     44 % 0.0 mm open2300-1.11 W/m2
18:12 7.4 °C -3.6 °C 1008.4 hPa Calm     46 % 0.0 mm open2300-1.11 W/m2
19:12 7.3 °C -4.2 °C 1009.0 hPa NNW 2.3 km/h 3.4 km/h 44 % 0.0 mm open2300-1.11 W/m2
20:12 6.5 °C -4.3 °C 1008.4 hPa Calm     46 % 0.0 mm open2300-1.11 W/m2
21:12 6.1 °C -5.0 °C 1007.7 hPa Calm   2.3 km/h 45 % 0.0 mm open2300-1.11 W/m2
22:12 5.9 °C -4.9 °C 1007.7 hPa WNW 22.5 km/h 22.5 km/h 46 % 0.0 mm open2300-1.11 W/m2
23:12 5.3 °C -5.8 °C 1007.7 hPa NNW 11.6 km/h 19.6 km/h 45 % 0.0 mm open2300-1.11 W/m2
Observations météo à CASSIS
WU-History script by Weather Underground - 1 mb